Time;durP1;ratioP1;P1;durP2;ratioP2;P2;SDS_P1;SDS_P2;PMS_P1;PMS_P2;Temp;Humidity;BMP_temperature;BMP_pressure;BME280_temperature;BME280_humidity;BME280_pressure;Samples;Min_cycle;Max_cycle;Signal;HPM_P1;HPM_P2
2021/05/07 00:01:32;;;;;;;10.73;2.30;;;;;;;7.44;91.16;95269.34;4936444;29;20039;-66
2021/05/07 00:03:58;;;;;;;6.53;2.15;;;;;;;7.33;91.07;95273.63;4934036;29;20404;-66
2021/05/07 00:06:23;;;;;;;6.75;1.95;;;;;;;7.30;91.60;95276.72;4934829;29;20047;-66
2021/05/07 00:08:49;;;;;;;7.80;2.10;;;;;;;7.35;91.58;95285.44;4933778;29;20048;-66
2021/05/07 00:11:18;;;;;;;8.48;2.05;;;;;;;7.34;91.55;95283.06;4935282;29;20054;-66
2021/05/07 00:13:48;;;;;;;6.43;2.08;;;;;;;7.41;91.17;95278.47;4934972;29;20082;-65
2021/05/07 00:16:14;;;;;;;6.75;2.03;;;;;;;7.33;91.23;95281.47;4934838;29;20044;-66
2021/05/07 00:18:40;;;;;;;9.13;2.20;;;;;;;7.29;90.76;95275.13;4934970;29;20052;-66
2021/05/07 00:21:06;;;;;;;7.90;1.77;;;;;;;7.28;90.78;95276.16;4935401;29;20050;-66
2021/05/07 00:23:33;;;;;;;6.32;1.75;;;;;;;7.34;89.66;95275.22;4935053;29;20134;-65
2021/05/07 00:26:01;;;;;;;5.80;1.40;;;;;;;7.32;89.20;95280.69;4935145;29;20043;-66
2021/05/07 00:28:29;;;;;;;6.72;1.50;;;;;;;7.29;89.16;95283.78;4935335;29;20161;-66
2021/05/07 00:30:57;;;;;;;5.72;1.42;;;;;;;7.30;88.47;95279.31;4935335;29;20055;-66
2021/05/07 00:33:23;;;;;;;4.97;1.48;;;;;;;7.36;88.84;95286.22;4935300;29;20035;-65
2021/05/07 00:35:49;;;;;;;3.85;1.25;;;;;;;7.27;89.18;95295.50;4933553;29;20043;-66
2021/05/07 00:38:15;;;;;;;6.43;1.48;;;;;;;7.34;88.35;95293.53;4950372;29;20059;-65
2021/05/07 00:40:40;;;;;;;5.07;1.50;;;;;;;7.32;88.77;95296.38;4942369;29;20075;-65
2021/05/07 00:43:06;;;;;;;8.02;1.60;;;;;;;7.25;88.96;95298.34;4946389;29;20043;-66
2021/05/07 00:45:32;;;;;;;5.63;1.20;;;;;;;7.27;88.49;95298.91;4944439;29;20043;-65
2021/05/07 00:48:01;;;;;;;3.67;1.17;;;;;;;7.16;88.40;95298.97;4939596;29;20082;-65
2021/05/07 00:50:28;;;;;;;3.67;1.15;;;;;;;7.28;87.49;95312.78;4938091;29;20071;-66
2021/05/07 00:52:55;;;;;;;3.58;1.10;;;;;;;7.25;87.44;95310.63;4938023;29;20106;-66
2021/05/07 00:55:20;;;;;;;4.40;1.40;;;;;;;7.12;87.62;95300.50;4937982;29;20043;-67
2021/05/07 00:57:47;;;;;;;5.68;1.55;;;;;;;7.05;86.85;95301.44;4937417;29;20411;-65
2021/05/07 01:00:14;;;;;;;6.55;1.77;;;;;;;7.14;86.92;95303.66;4937993;29;20533;-65
2021/05/07 01:02:39;;;;;;;3.92;1.30;;;;;;;7.07;87.34;95311.66;4938286;29;20115;-65
2021/05/07 01:05:08;;;;;;;4.72;1.30;;;;;;;7.26;86.65;95307.78;4938230;29;20063;-65
2021/05/07 01:07:35;;;;;;;4.82;1.35;;;;;;;7.09;87.05;95299.91;4937907;29;20075;-66
2021/05/07 01:10:03;;;;;;;4.47;1.30;;;;;;;7.14;86.38;95295.81;4937800;29;20048;-65
2021/05/07 01:12:29;;;;;;;4.50;1.33;;;;;;;7.30;86.08;95298.44;4938154;29;20047;-65
2021/05/07 01:15:05;;;;;;;4.18;1.23;;;;;;;7.09;86.58;95297.28;4938517;29;20102;-65
2021/05/07 01:17:30;;;;;;;5.18;1.40;;;;;;;7.13;86.40;95289.00;4938513;29;20036;-65
2021/05/07 01:20:02;;;;;;;4.70;1.38;;;;;;;7.01;87.13;95281.22;4936475;29;20058;-67
2021/05/07 01:22:28;;;;;;;5.32;1.60;;;;;;;6.96;87.18;95289.75;4936337;29;20090;-66
2021/05/07 01:24:56;;;;;;;3.63;1.00;;;;;;;6.93;87.40;95290.22;4937548;29;20519;-65
2021/05/07 01:27:22;;;;;;;5.78;1.23;;;;;;;6.93;87.56;95292.84;4937442;29;20140;-65
2021/05/07 01:29:47;;;;;;;3.83;1.38;;;;;;;6.88;87.25;95295.34;4937145;29;20500;-65
2021/05/07 01:32:16;;;;;;;3.83;1.15;;;;;;;7.01;86.63;95299.53;4937401;29;20043;-65
2021/05/07 01:34:41;;;;;;;3.55;1.10;;;;;;;7.02;87.55;95298.47;4937129;29;20039;-66
2021/05/07 01:37:08;;;;;;;4.07;1.13;;;;;;;6.90;87.59;95300.38;4957751;23;20103;-65
2021/05/07 01:39:33;;;;;;;4.22;1.27;;;;;;;6.93;87.84;95298.06;4939964;29;20040;-66
2021/05/07 01:41:59;;;;;;;3.58;1.17;;;;;;;7.05;87.85;95301.44;4938306;29;20115;-66
2021/05/07 01:44:25;;;;;;;5.78;1.30;;;;;;;6.96;88.60;95308.06;4937749;29;20457;-66
2021/05/07 01:46:50;;;;;;;5.00;1.30;;;;;;;7.12;88.62;95305.72;4939416;29;20456;-66
2021/05/07 01:49:16;;;;;;;4.13;1.25;;;;;;;6.88;89.66;95305.81;4938494;29;20078;-66
2021/05/07 01:51:42;;;;;;;6.63;1.30;;;;;;;7.05;88.85;95309.28;4939061;29;20050;-65
2021/05/07 01:54:09;;;;;;;4.60;1.50;;;;;;;7.05;88.50;95306.66;4938069;29;20040;-65
2021/05/07 01:56:34;;;;;;;4.10;1.35;;;;;;;7.04;89.25;95320.75;4937976;29;20546;-65
2021/05/07 01:59:00;;;;;;;3.60;1.17;;;;;;;7.10;87.79;95319.81;4938495;29;20075;-67
2021/05/07 02:01:25;;;;;;;4.28;1.20;;;;;;;7.07;88.22;95322.09;4938865;29;20095;-66
2021/05/07 02:03:51;;;;;;;3.78;1.20;;;;;;;6.90;88.77;95318.66;4937675;29;20070;-65
2021/05/07 02:06:26;;;;;;;3.58;1.10;;;;;;;6.98;88.95;95332.13;4936840;29;20385;-65
2021/05/07 02:08:51;;;;;;;3.45;1.05;;;;;;;6.87;88.71;95325.16;4938327;29;20150;-64
2021/05/07 02:11:18;;;;;;;4.35;1.30;;;;;;;6.79;89.39;95315.06;4938019;29;20499;-67
2021/05/07 02:13:44;;;;;;;3.67;1.10;;;;;;;6.84;89.27;95315.16;4938325;29;20044;-65
2021/05/07 02:16:13;;;;;;;4.22;1.13;;;;;;;6.76;89.34;95318.16;4937922;29;20526;-66
2021/05/07 02:18:39;;;;;;;4.63;1.50;;;;;;;6.85;88.94;95324.59;4937593;29;20171;-67
2021/05/07 02:21:08;;;;;;;4.53;1.20;;;;;;;6.65;89.24;95327.59;4938232;29;20047;-67
2021/05/07 02:23:33;;;;;;;5.03;1.33;;;;;;;6.57;89.23;95323.56;4938483;29;20488;-67
2021/05/07 02:25:59;;;;;;;5.00;1.25;;;;;;;6.51;88.38;95316.66;4937702;29;20054;-66
2021/05/07 02:28:28;;;;;;;4.85;1.13;;;;;;;6.53;89.74;95325.03;4937136;29;20130;-66
2021/05/07 02:30:53;;;;;;;4.47;1.38;;;;;;;6.52;89.96;95328.69;4937730;29;20044;-67
2021/05/07 02:33:19;;;;;;;5.25;1.35;;;;;;;6.45;90.64;95328.00;4936190;29;20066;-66
2021/05/07 02:35:45;;;;;;;4.70;1.30;;;;;;;6.53;90.52;95340.72;4939527;29;20498;-66
2021/05/07 02:38:10;;;;;;;4.45;1.15;;;;;;;6.47;89.83;95333.00;4937299;29;20051;-66
2021/05/07 02:40:38;;;;;;;7.57;2.03;;;;;;;6.40;90.24;95334.94;4937759;29;20059;-66
2021/05/07 02:43:04;;;;;;;4.68;1.13;;;;;;;6.35;90.75;95343.50;4937140;29;20094;-65
2021/05/07 02:45:33;;;;;;;3.83;1.20;;;;;;;6.32;90.50;95336.09;4936131;29;20463;-65
2021/05/07 02:47:58;;;;;;;4.95;1.10;;;;;;;6.31;90.96;95342.34;4936937;29;20071;-66
2021/05/07 02:50:24;;;;;;;5.53;1.25;;;;;;;6.41;90.56;95341.78;4943490;29;20040;-66
2021/05/07 02:52:50;;;;;;;4.60;1.45;;;;;;;6.30;90.25;95351.22;4946743;29;20164;-67
2021/05/07 02:55:18;;;;;;;5.60;1.40;;;;;;;6.33;90.50;95353.34;4937014;29;20043;-66
2021/05/07 02:57:43;;;;;;;4.55;1.20;;;;;;;6.34;90.96;95347.09;4938007;29;20051;-67
2021/05/07 03:00:10;;;;;;;5.35;1.30;;;;;;;6.22;90.26;95348.94;4937663;29;20043;-66
2021/05/07 03:02:36;;;;;;;3.70;1.20;;;;;;;6.23;90.59;95350.53;4937849;29;20043;-66
2021/05/07 03:05:03;;;;;;;5.68;1.27;;;;;;;6.22;90.09;95347.13;4936747;29;20050;-65
2021/05/07 03:07:28;;;;;;;4.22;1.08;;;;;;;6.42;90.58;95344.16;4935360;29;20040;-66
2021/05/07 03:09:54;;;;;;;4.85;1.30;;;;;;;6.25;90.69;95354.50;4936754;29;20044;-65
2021/05/07 03:12:20;;;;;;;4.15;1.20;;;;;;;6.26;90.62;95360.53;4936748;29;20047;-67
2021/05/07 03:14:45;;;;;;;3.72;1.17;;;;;;;6.30;91.17;95351.22;4937320;29;20054;-65
2021/05/07 03:17:11;;;;;;;4.45;1.10;;;;;;;6.20;89.50;95356.22;4936150;29;20071;-66
2021/05/07 03:19:37;;;;;;;4.97;1.10;;;;;;;6.10;90.81;95351.56;4936837;29;20448;-66
2021/05/07 03:22:03;;;;;;;4.40;1.10;;;;;;;6.18;90.91;95342.59;4936547;29;20127;-67
2021/05/07 03:24:29;;;;;;;4.32;1.20;;;;;;;6.07;91.34;95341.56;4936309;29;20039;-66
2021/05/07 03:26:54;;;;;;;3.83;1.05;;;;;;;6.40;90.61;95337.56;4935842;29;20036;-66
2021/05/07 03:29:20;;;;;;;4.65;1.35;;;;;;;6.42;89.77;95341.53;4935811;29;20072;-66
2021/05/07 03:31:45;;;;;;;5.75;1.40;;;;;;;6.35;88.99;95346.09;4936492;29;20384;-66
2021/05/07 03:34:11;;;;;;;5.95;1.40;;;;;;;6.26;90.54;95350.88;4934682;29;20478;-66
2021/05/07 03:36:38;;;;;;;6.13;1.50;;;;;;;6.14;91.46;95360.53;4935670;29;20130;-65
2021/05/07 03:39:04;;;;;;;5.75;1.45;;;;;;;6.04;91.22;95363.72;4936021;29;20086;-67
2021/05/07 03:41:30;;;;;;;4.68;1.38;;;;;;;6.00;91.14;95367.81;4935547;29;20043;-66
2021/05/07 03:43:59;;;;;;;4.95;1.30;;;;;;;6.11;91.29;95362.81;4935428;29;20043;-67
2021/05/07 03:46:27;;;;;;;6.97;1.50;;;;;;;6.13;91.48;95364.16;4934132;29;20523;-66
2021/05/07 03:48:55;;;;;;;4.13;1.35;;;;;;;6.00;91.46;95365.19;4935948;29;20472;-68
2021/05/07 03:51:21;;;;;;;5.63;1.40;;;;;;;6.01;90.96;95374.59;4935588;29;20054;-65
2021/05/07 03:53:47;;;;;;;5.13;1.40;;;;;;;6.13;92.11;95360.75;4935511;29;20036;-65
2021/05/07 03:56:13;;;;;;;6.32;1.70;;;;;;;6.10;91.65;95358.63;4935568;29;20048;-66
2021/05/07 03:58:38;;;;;;;4.97;1.50;;;;;;;6.08;92.10;95363.25;4935740;29;20079;-65
2021/05/07 04:01:07;;;;;;;5.22;1.40;;;;;;;6.20;90.95;95364.06;4935654;29;20054;-66
2021/05/07 04:03:33;;;;;;;6.15;1.35;;;;;;;6.09;91.51;95380.53;4950113;29;20040;-65
2021/05/07 04:05:58;;;;;;;7.05;1.50;;;;;;;6.10;91.84;95371.66;4935346;29;20388;-65
2021/05/07 04:08:27;;;;;;;5.88;1.40;;;;;;;6.03;91.84;95369.97;4934858;29;20143;-65
2021/05/07 04:11:01;;;;;;;3.80;1.00;;;;;;;6.16;90.47;95382.00;4935862;29;20494;-66
2021/05/07 04:15:59;;;;;;;4.30;0.90;;;;;;;6.08;91.13;95395.41;4939486;29;20047;-66
2021/05/07 04:18:25;;;;;;;4.75;1.30;;;;;;;6.17;91.31;95395.84;4938838;29;20048;-66
2021/05/07 04:20:50;;;;;;;5.75;1.35;;;;;;;6.11;91.11;95404.59;4939409;29;20048;-66
2021/05/07 04:23:16;;;;;;;3.67;0.90;;;;;;;6.14;89.04;95404.94;4939254;29;20495;-67
2021/05/07 04:25:42;;;;;;;4.10;0.90;;;;;;;6.13;89.78;95402.53;4939285;29;20443;-66
2021/05/07 04:28:08;;;;;;;3.40;1.10;;;;;;;6.11;90.15;95401.97;4937962;29;20047;-66
2021/05/07 04:30:36;;;;;;;3.60;1.00;;;;;;;6.34;89.89;95404.56;4938474;29;20039;-66
2021/05/07 04:33:02;;;;;;;4.22;0.90;;;;;;;6.27;88.70;95415.13;4939357;29;20099;-67
2021/05/07 04:35:28;;;;;;;4.07;1.08;;;;;;;6.21;89.30;95415.25;4938958;29;20047;-67
2021/05/07 04:37:54;;;;;;;6.40;1.20;;;;;;;6.28;89.60;95405.47;4938979;29;20050;-66
2021/05/07 04:40:22;;;;;;;7.28;1.50;;;;;;;6.28;89.88;95400.25;4939929;29;20050;-65
2021/05/07 04:42:50;;;;;;;6.35;1.40;;;;;;;6.24;90.37;95404.34;4939418;29;20087;-66
2021/05/07 04:45:16;;;;;;;4.95;1.30;;;;;;;6.30;89.43;95421.75;4941445;29;20047;-66
2021/05/07 04:47:42;;;;;;;5.22;1.25;;;;;;;6.51;88.73;95425.56;4942053;29;20487;-66
2021/05/07 04:50:13;;;;;;;7.13;1.67;;;;;;;6.63;88.88;95428.19;4939774;29;20058;-66
2021/05/07 04:52:39;;;;;;;5.55;1.55;;;;;;;6.51;88.92;95421.16;4938747;29;20139;-67
2021/05/07 04:55:06;;;;;;;7.80;2.13;;;;;;;6.46;89.90;95428.88;4937290;29;20061;-67
2021/05/07 04:57:34;;;;;;;10.18;2.42;;;;;;;6.61;89.47;95435.44;4938473;29;20047;-67
2021/05/07 04:59:59;;;;;;;8.18;2.25;;;;;;;6.44;89.63;95443.19;4938511;29;20119;-66
2021/05/07 05:02:29;;;;;;;8.38;2.25;;;;;;;6.53;89.25;95440.00;4938614;29;20466;-66
2021/05/07 05:04:55;;;;;;;9.32;1.73;;;;;;;6.35;90.33;95450.59;4937640;29;20500;-66
2021/05/07 05:07:21;;;;;;;9.18;2.08;;;;;;;6.28;90.49;95447.28;4938686;29;20134;-65
2021/05/07 05:09:46;;;;;;;10.30;2.58;;;;;;;6.36;88.48;95444.34;4938907;29;20126;-66
2021/05/07 05:12:12;;;;;;;6.55;1.88;;;;;;;6.31;90.03;95439.78;4937293;29;20070;-64
2021/05/07 05:14:38;;;;;;;7.80;2.35;;;;;;;6.31;89.71;95449.44;4938234;29;20425;-66
2021/05/07 05:17:03;;;;;;;8.75;1.88;;;;;;;6.35;89.79;95453.19;4938376;29;20071;-66
2021/05/07 05:19:30;;;;;;;6.07;1.83;;;;;;;6.40;89.96;95458.50;4938248;29;20048;-65
2021/05/07 05:21:55;;;;;;;5.93;1.70;;;;;;;6.41;90.64;95457.50;4938147;29;20131;-65
2021/05/07 05:24:21;;;;;;;4.63;1.38;;;;;;;6.33;90.31;95460.44;4936557;29;20130;-66
2021/05/07 05:26:47;;;;;;;7.57;1.88;;;;;;;6.38;90.09;95463.16;4936874;29;20106;-66
2021/05/07 05:29:14;;;;;;;5.95;1.60;;;;;;;6.32;89.55;95464.09;4938117;29;20072;-65
2021/05/07 05:31:42;;;;;;;6.70;1.45;;;;;;;6.38;89.33;95468.41;4938169;29;20043;-66
2021/05/07 05:34:08;;;;;;;4.35;1.20;;;;;;;6.67;88.71;95479.72;4938065;29;20454;-66
2021/05/07 05:36:34;;;;;;;4.90;1.10;;;;;;;6.47;87.72;95481.94;4938485;29;20480;-66
2021/05/07 05:39:00;;;;;;;2.83;1.00;;;;;;;6.48;87.29;95488.72;4938821;29;20047;-67
2021/05/07 05:41:26;;;;;;;1.98;0.80;;;;;;;6.37;86.87;95490.31;4939917;29;20040;-67
2021/05/07 05:43:52;;;;;;;3.33;1.10;;;;;;;6.19;88.56;95488.59;4947189;29;20043;-66
2021/05/07 05:46:19;;;;;;;1.95;0.80;;;;;;;6.24;87.62;95495.75;4945702;29;20039;-78
2021/05/07 05:48:44;;;;;;;3.88;0.98;;;;;;;6.29;87.92;95496.66;4934980;29;20048;-74
2021/05/07 05:51:12;;;;;;;3.35;1.08;;;;;;;6.22;87.36;95500.41;4925162;29;20631;-78
2021/05/07 05:53:39;;;;;;;2.47;0.80;;;;;;;5.97;86.93;95511.84;4943130;29;20297;-79
2021/05/07 05:56:08;;;;;;;2.60;0.85;;;;;;;5.73;88.89;95523.19;4943534;29;20039;-76
2021/05/07 05:58:34;;;;;;;4.20;1.10;;;;;;;5.62;89.11;95516.13;4945725;29;20082;-75
2021/05/07 06:00:59;;;;;;;2.53;1.00;;;;;;;5.59;88.82;95534.81;4940398;29;20071;-77
2021/05/07 06:03:26;;;;;;;1.80;0.73;;;;;;;5.37;87.62;95530.06;4945671;29;20505;-74
2021/05/07 06:05:51;;;;;;;3.00;0.75;;;;;;;5.14;85.99;95535.16;4937429;29;20072;-79
2021/05/07 06:08:20;;;;;;;1.95;0.70;;;;;;;5.09;87.61;95537.63;4937471;29;20040;-71
2021/05/07 06:10:46;;;;;;;3.42;0.90;;;;;;;5.09;85.44;95538.41;4939488;29;20522;-71
2021/05/07 06:13:12;;;;;;;1.58;0.60;;;;;;;4.84;85.94;95548.88;4938738;29;20035;-75
2021/05/07 06:15:41;;;;;;;1.80;0.80;;;;;;;4.76;85.97;95541.38;4938672;29;20074;-69
2021/05/07 06:18:08;;;;;;;3.50;0.70;;;;;;;4.54;86.13;95550.59;4940468;29;20419;-78
2021/05/07 06:20:33;;;;;;;2.90;0.63;;;;;;;4.39;87.94;95554.31;4932867;29;20137;-75
2021/05/07 06:22:59;;;;;;;8.45;1.42;;;;;;;4.43;88.32;95567.69;4942045;29;20483;-76
2021/05/07 06:25:26;;;;;;;4.03;0.75;;;;;;;4.33;87.42;95573.38;4937766;29;20043;-76
2021/05/07 06:27:53;;;;;;;1.73;0.70;;;;;;;4.47;88.53;95577.50;4935089;29;20044;-73
2021/05/07 06:30:22;;;;;;;4.13;0.80;;;;;;;4.40;88.06;95570.72;4944897;28;20024;-76
2021/05/07 06:32:47;;;;;;;2.95;1.00;;;;;;;4.21;88.14;95586.28;4958217;29;20040;-77
2021/05/07 06:35:13;;;;;;;1.52;0.52;;;;;;;4.21;88.37;95581.09;4955004;29;20059;-73
2021/05/07 06:37:40;;;;;;;4.47;1.00;;;;;;;4.13;88.74;95585.72;4939880;29;20040;-68
2021/05/07 06:40:07;;;;;;;3.80;1.00;;;;;;;4.13;88.70;95590.94;4949852;28;20051;-74
2021/05/07 06:42:35;;;;;;;4.00;0.90;;;;;;;4.05;87.86;95591.22;4954175;28;20035;-71
2021/05/07 06:45:02;;;;;;;;;;;;;;;3.98;88.25;95593.03;4943688;29;20035;-70
2021/05/07 06:47:28;;;;;;;2.63;0.43;;;;;;;4.09;88.38;95597.56;4940967;29;19945;-76
2021/05/07 06:49:56;;;;;;;6.45;1.60;;;;;;;4.07;88.31;95607.41;4942617;29;20499;-76
2021/05/07 06:52:23;;;;;;;4.35;0.95;;;;;;;4.14;88.50;95605.53;4938686;29;20055;-77
2021/05/07 06:54:49;;;;;;;6.45;1.45;;;;;;;4.27;87.85;95608.06;4937628;29;20071;-76
2021/05/07 06:57:14;;;;;;;13.88;3.50;;;;;;;4.36;88.15;95614.63;4938334;29;20050;-76
2021/05/07 06:59:40;;;;;;;3.08;0.88;;;;;;;4.26;88.83;95622.09;4939747;29;20063;-74
2021/05/07 07:02:09;;;;;;;1.73;0.68;;;;;;;4.32;88.57;95615.25;4938368;29;20051;-71
2021/05/07 07:04:35;;;;;;;12.48;2.83;;;;;;;4.22;89.18;95621.72;4930878;29;20063;-75
2021/05/07 07:07:03;;;;;;;6.50;1.30;;;;;;;4.16;88.66;95612.16;4937960;29;20384;-77
2021/05/07 07:09:29;;;;;;;6.22;1.42;;;;;;;4.18;88.47;95619.75;4937736;29;20047;-73
2021/05/07 07:11:55;;;;;;;9.35;2.20;;;;;;;4.28;89.16;95624.50;4936092;29;20044;-73
2021/05/07 07:14:21;;;;;;;9.02;1.90;;;;;;;4.18;88.78;95630.16;4938232;29;20040;-77
2021/05/07 07:16:49;;;;;;;2.88;0.85;;;;;;;4.33;88.87;95628.06;4940342;29;20055;-81
2021/05/07 07:19:16;;;;;;;4.30;0.88;;;;;;;4.35;89.30;95633.84;4939763;29;20046;-76
2021/05/07 07:21:42;;;;;;;8.38;1.60;;;;;;;4.44;88.64;95631.78;4944311;29;20047;-76
2021/05/07 07:24:08;;;;;;;4.57;1.13;;;;;;;4.76;87.54;95632.56;4939462;29;20058;-76
2021/05/07 07:26:34;;;;;;;2.08;0.75;;;;;;;4.52;87.93;95635.94;4939593;29;20271;-82
2021/05/07 07:29:00;;;;;;;3.25;0.90;;;;;;;4.68;89.87;95635.41;4939318;29;20047;-73
2021/05/07 07:31:26;;;;;;;7.10;2.22;;;;;;;5.12;87.65;95644.09;4939637;29;20055;-77
2021/05/07 07:33:54;;;;;;;1.50;0.63;;;;;;;5.62;85.30;95651.78;4940665;29;20043;-75
2021/05/07 07:36:20;;;;;;;;;;;;;;;5.55;84.43;95651.06;4938575;29;20050;-67
2021/05/07 07:38:49;;;;;;;2.03;0.70;;;;;;;5.66;86.78;95652.94;4968762;23;19922;-76
2021/05/07 07:41:15;;;;;;;3.17;0.90;;;;;;;5.77;83.66;95657.44;4960485;28;20118;-75
2021/05/07 07:43:43;;;;;;;3.15;0.80;;;;;;;5.72;85.11;95672.97;4978304;28;20043;-74
2021/05/07 07:46:11;;;;;;;5.65;1.30;;;;;;;5.75;85.35;95667.28;4961961;28;20098;-71
2021/05/07 07:48:36;;;;;;;2.78;0.82;;;;;;;5.69;85.94;95668.16;4962100;28;20054;-76
2021/05/07 07:51:05;;;;;;;4.32;1.02;;;;;;;5.59;84.84;95670.47;4980105;28;20047;-74
2021/05/07 07:53:31;;;;;;;4.28;1.20;;;;;;;5.60;83.88;95674.69;4972799;28;20059;-73
2021/05/07 07:55:58;;;;;;;4.07;1.10;;;;;;;5.27;84.34;95670.59;4976242;28;20031;-73
2021/05/07 07:58:26;;;;;;;5.22;1.50;;;;;;;5.15;85.90;95667.91;4973848;28;20138;-73
2021/05/07 08:00:54;;;;;;;9.13;1.77;;;;;;;5.55;85.56;95682.38;4971269;28;20043;-70
2021/05/07 08:03:20;;;;;;;8.63;2.55;;;;;;;5.58;84.81;95681.94;4968567;28;20043;-71
2021/05/07 08:05:46;;;;;;;9.00;2.05;;;;;;;6.02;83.27;95671.19;4963798;28;20058;-71
2021/05/07 08:08:11;;;;;;;4.55;1.52;;;;;;;5.88;82.67;95672.38;4961502;29;20039;-72
2021/05/07 08:10:38;;;;;;;6.47;2.20;;;;;;;7.14;79.67;95685.50;4956527;29;20406;-67
2021/05/07 08:13:04;;;;;;;7.38;2.15;;;;;;;6.80;79.14;95688.63;4954476;29;20047;-66
2021/05/07 08:15:30;;;;;;;8.25;2.83;;;;;;;6.50;79.37;95695.69;4953857;29;20062;-67
2021/05/07 08:17:55;;;;;;;7.47;2.75;;;;;;;6.30;80.84;95693.38;4955882;29;20047;-68
2021/05/07 08:20:22;;;;;;;6.32;2.35;;;;;;;6.34;78.94;95704.94;4955792;28;20043;-70
2021/05/07 08:22:48;;;;;;;7.85;2.80;;;;;;;6.76;79.22;95710.22;4955447;29;20043;-68
2021/05/07 08:25:15;;;;;;;8.85;2.90;;;;;;;6.97;78.46;95721.97;4970770;28;20039;-68
2021/05/07 08:27:42;;;;;;;7.78;2.60;;;;;;;6.88;76.92;95705.78;4956449;28;20511;-70
2021/05/07 08:30:11;;;;;;;7.22;2.88;;;;;;;6.96;76.32;95721.19;4956136;29;20067;-73
2021/05/07 08:32:37;;;;;;;7.93;3.72;;;;;;;6.88;78.08;95723.31;4955822;28;20101;-71
2021/05/07 08:35:03;;;;;;;8.35;3.30;;;;;;;6.55;79.07;95721.97;4954048;29;20047;-71
2021/05/07 08:37:29;;;;;;;7.60;3.13;;;;;;;6.45;79.76;95730.31;4954871;29;20043;-69
2021/05/07 08:39:56;;;;;;;7.90;3.53;;;;;;;6.43;80.48;95742.03;4954673;28;20396;-74
2021/05/07 08:42:22;;;;;;;9.90;4.28;;;;;;;6.45;79.52;95745.19;4957056;29;20085;-71
2021/05/07 08:44:49;;;;;;;9.80;4.32;;;;;;;6.31;78.65;95755.03;4955789;29;20047;-67
2021/05/07 08:47:19;;;;;;;10.60;4.80;;;;;;;6.43;79.47;95750.66;4955420;28;20051;-70
2021/05/07 08:49:47;;;;;;;9.57;4.32;;;;;;;6.68;80.88;95758.38;4957602;28;20110;-74
2021/05/07 08:52:12;;;;;;;;;;;;;;;6.79;78.11;95756.84;4941914;29;20086;-74
2021/05/07 08:54:38;;;;;;;9.27;4.70;;;;;;;6.87;77.38;95774.00;4951803;29;19923;-72
2021/05/07 08:57:04;;;;;;;9.00;4.05;;;;;;;7.29;76.65;95772.97;4938174;29;20054;-71
2021/05/07 08:59:30;;;;;;;10.18;5.05;;;;;;;7.56;74.84;95775.16;4960815;29;20043;-69
2021/05/07 09:01:56;;;;;;;10.32;4.78;;;;;;;8.65;71.83;95781.41;4966330;29;20511;-69
2021/05/07 09:04:22;;;;;;;12.45;4.38;;;;;;;9.66;66.76;95781.53;4962438;28;20049;-72
2021/05/07 09:06:53;;;;;;;9.57;4.35;;;;;;;9.11;68.75;95795.34;4962329;28;20126;-72
2021/05/07 09:09:25;;;;;;;10.55;4.30;;;;;;;8.24;70.36;95799.97;4965786;28;20154;-71
2021/05/07 09:11:52;;;;;;;8.73;3.95;;;;;;;7.75;71.11;95799.41;4953036;28;20039;-71
2021/05/07 09:14:19;;;;;;;9.15;4.45;;;;;;;7.62;73.40;95809.06;4959221;29;20040;-72
2021/05/07 09:16:57;;;;;;;8.25;4.40;;;;;;;8.06;71.56;95799.03;4960575;28;20762;-71
2021/05/07 09:19:26;;;;;;;9.15;4.30;;;;;;;8.32;71.47;95815.31;4941372;28;20075;-70
2021/05/07 09:21:56;;;;;;;10.02;4.68;;;;;;;8.57;68.65;95815.88;4949636;29;20435;-70
2021/05/07 09:24:30;;;;;;;7.95;3.95;;;;;;;8.76;64.56;95818.31;4954846;29;20513;-65
2021/05/07 09:26:58;;;;;;;8.90;3.95;;;;;;;8.81;66.40;95826.25;4946968;29;20484;-75
2021/05/07 09:29:25;;;;;;;9.20;4.40;;;;;;;8.92;66.30;95838.53;4945975;29;20408;-69
2021/05/07 09:31:52;;;;;;;9.27;3.93;;;;;;;8.99;66.98;95839.22;4956222;29;20137;-70
2021/05/07 09:34:20;;;;;;;9.50;4.30;;;;;;;8.59;67.73;95844.47;4939602;29;20349;-68
2021/05/07 09:36:48;;;;;;;7.88;3.75;;;;;;;8.57;65.53;95836.84;4951898;29;20086;-69
2021/05/07 09:39:16;;;;;;;10.10;4.00;;;;;;;8.37;64.88;95847.69;4955145;28;20081;-74
2021/05/07 09:41:42;;;;;;;8.20;4.07;;;;;;;8.04;66.37;95853.50;4958213;28;20039;-70
2021/05/07 09:44:16;;;;;;;8.00;3.60;;;;;;;8.05;67.25;95868.19;4958289;28;20527;-72
2021/05/07 09:46:42;;;;;;;8.68;3.60;;;;;;;7.34;70.16;95874.34;4958563;28;20070;-70
2021/05/07 09:49:10;;;;;;;9.35;4.40;;;;;;;7.04;77.81;95879.56;4956721;29;20419;-68
2021/05/07 09:51:40;;;;;;;;;;;;;;;6.75;79.13;95891.59;4958798;28;20137;-68
2021/05/07 09:54:08;;;;;;;8.15;3.65;;;;;;;6.47;81.77;95895.53;4958025;29;19950;-70
2021/05/07 09:56:34;;;;;;;8.15;3.97;;;;;;;6.07;81.31;95905.53;4959798;28;20055;-71
2021/05/07 09:59:01;;;;;;;9.85;4.47;;;;;;;6.14;85.27;95892.44;4959417;29;20039;-71
2021/05/07 10:01:27;;;;;;;9.90;4.50;;;;;;;6.30;81.84;95899.72;4961555;28;20051;-76
2021/05/07 10:03:54;;;;;;;9.02;4.28;;;;;;;6.54;82.29;95909.31;4959989;28;20432;-64
2021/05/07 10:06:23;;;;;;;9.13;4.20;;;;;;;6.39;80.77;95913.28;4958098;28;20046;-61
2021/05/07 10:08:50;;;;;;;8.98;4.28;;;;;;;6.80;81.86;95916.06;4957859;28;20443;-62
2021/05/07 10:11:17;;;;;;;10.17;4.70;;;;;;;6.90;80.66;95920.78;4956597;29;20054;-62
2021/05/07 10:13:44;;;;;;;9.32;4.20;;;;;;;6.88;81.61;95927.22;4958963;28;20047;-63
2021/05/07 10:16:10;;;;;;;8.63;3.72;;;;;;;6.72;79.38;95920.78;4959534;28;20047;-63
2021/05/07 10:18:40;;;;;;;9.60;4.55;;;;;;;6.49;83.37;95922.22;4961095;29;20093;-63
2021/05/07 10:21:07;;;;;;;9.23;4.35;;;;;;;6.45;81.35;95912.41;4951732;28;20054;-63
2021/05/07 10:23:35;;;;;;;8.80;3.90;;;;;;;6.54;79.67;95922.38;4958698;28;20113;-63
2021/05/07 10:26:04;;;;;;;8.95;3.60;;;;;;;6.74;82.73;95931.84;4956171;28;20099;-61
2021/05/07 10:28:43;;;;;;;7.90;2.88;;;;;;;7.27;81.62;95936.44;4951807;29;20047;-62
2021/05/07 10:31:10;;;;;;;6.93;2.53;;;;;;;7.75;79.64;95943.41;4943117;29;20043;-62
2021/05/07 10:33:37;;;;;;;5.85;1.90;;;;;;;7.72;77.37;95938.63;4956931;29;20111;-61
2021/05/07 10:36:04;;;;;;;5.20;1.80;;;;;;;7.43;79.05;95935.81;4956040;28;20130;-63
2021/05/07 10:38:32;;;;;;;6.63;2.28;;;;;;;7.29;76.83;95940.41;4956721;29;20058;-63
2021/05/07 10:41:08;;;;;;;7.55;2.20;;;;;;;7.33;78.68;95936.34;4951883;28;20043;-62
2021/05/07 10:43:38;;;;;;;6.97;2.65;;;;;;;7.29;79.06;95940.41;4938586;29;20123;-61
2021/05/07 10:46:04;;;;;;;7.13;2.50;;;;;;;7.67;77.33;95947.16;4948025;29;20491;-65
2021/05/07 10:48:29;;;;;;;7.38;3.28;;;;;;;7.74;77.45;95941.81;4955840;29;20511;-62
2021/05/07 10:50:57;;;;;;;7.82;3.05;;;;;;;8.10;71.85;95938.25;4956044;28;20050;-63
2021/05/07 10:53:33;;;;;;;6.45;2.65;;;;;;;8.11;70.60;95932.75;4956403;28;20047;-62
2021/05/07 10:55:59;;;;;;;6.15;2.53;;;;;;;8.11;69.25;95943.25;4955846;28;20048;-60
2021/05/07 10:58:36;;;;;;;7.82;3.20;;;;;;;8.05;70.63;95944.16;4956161;28;20362;-63
2021/05/07 11:01:15;;;;;;;8.98;3.35;;;;;;;8.23;68.29;95945.88;4955771;29;20051;-62
2021/05/07 11:03:41;;;;;;;7.72;2.90;;;;;;;8.49;69.60;95944.66;4955564;28;20050;-62
2021/05/07 11:06:09;;;;;;;7.93;3.75;;;;;;;8.61;67.44;95953.34;4956142;29;20039;-62
2021/05/07 11:08:34;;;;;;;8.50;3.70;;;;;;;8.78;66.40;95950.00;4954396;29;20053;-63
2021/05/07 11:11:00;;;;;;;8.82;3.20;;;;;;;8.58;67.95;95959.03;4955559;29;20118;-64
2021/05/07 11:13:29;;;;;;;8.35;3.20;;;;;;;8.77;64.89;95961.50;4955482;28;20107;-61
2021/05/07 11:15:57;;;;;;;6.97;2.95;;;;;;;8.67;63.76;95962.09;4955340;28;20043;-61
2021/05/07 11:18:32;;;;;;;7.32;2.97;;;;;;;8.44;61.04;95962.09;4954952;28;20531;-63
2021/05/07 11:21:09;;;;;;;7.38;2.83;;;;;;;8.81;59.93;95968.69;4954034;28;20086;-63
2021/05/07 11:23:35;;;;;;;6.93;2.72;;;;;;;8.83;61.60;95965.84;4957060;28;20086;-63
2021/05/07 11:26:04;;;;;;;6.68;2.50;;;;;;;9.19;59.62;95960.28;4955917;29;20051;-62
2021/05/07 11:28:39;;;;;;;7.50;2.83;;;;;;;9.46;55.93;95973.66;4955456;28;20050;-62
2021/05/07 11:31:06;;;;;;;7.63;2.80;;;;;;;9.84;58.57;95974.06;4955031;28;20051;-62
2021/05/07 11:33:32;;;;;;;6.57;2.65;;;;;;;10.05;58.17;95969.97;4954813;29;20043;-62
2021/05/07 11:36:06;;;;;;;7.50;2.80;;;;;;;10.12;53.94;95963.53;4954921;29;20059;-62
2021/05/07 11:38:33;;;;;;;7.88;2.70;;;;;;;10.14;56.71;95974.59;4960318;28;20102;-63
2021/05/07 11:40:58;;;;;;;7.47;2.60;;;;;;;9.94;54.05;95985.56;4957699;29;20054;-62
2021/05/07 11:43:30;;;;;;;7.28;2.55;;;;;;;9.86;56.42;95985.16;4950059;29;20047;-64